sensor_id;sensor_type;location;lat;lon;timestamp;temperature;humidity
51867;DHT22;52862;52.504;13.480;2023-08-24T00:01:48;19.80;99.90
51867;DHT22;52862;52.504;13.480;2023-08-24T00:04:15;19.90;99.90
51867;DHT22;52862;52.504;13.480;2023-08-24T00:06:41;19.70;99.90
51867;DHT22;52862;52.504;13.480;2023-08-24T00:09:09;19.70;99.90
51867;DHT22;52862;52.504;13.480;2023-08-24T00:11:35;19.70;99.90
51867;DHT22;52862;52.504;13.480;2023-08-24T00:14:03;19.70;99.90
51867;DHT22;52862;52.504;13.480;2023-08-24T00:16:30;19.80;99.90
51867;DHT22;52862;52.504;13.480;2023-08-24T00:18:56;19.90;99.90
51867;DHT22;52862;52.504;13.480;2023-08-24T00:21:23;19.60;99.90
51867;DHT22;52862;52.504;13.480;2023-08-24T00:23:50;19.60;99.90
51867;DHT22;52862;52.504;13.480;2023-08-24T00:26:17;19.60;99.90
51867;DHT22;52862;52.504;13.480;2023-08-24T00:28:44;19.60;99.90
51867;DHT22;52862;52.504;13.480;2023-08-24T00:31:11;19.60;99.90
51867;DHT22;52862;52.504;13.480;2023-08-24T00:33:38;19.60;99.90
51867;DHT22;52862;52.504;13.480;2023-08-24T00:36:06;19.60;99.90
51867;DHT22;52862;52.504;13.480;2023-08-24T00:38:33;19.60;99.90
51867;DHT22;52862;52.504;13.480;2023-08-24T00:41:00;19.40;99.90
51867;DHT22;52862;52.504;13.480;2023-08-24T00:43:27;19.40;99.90
51867;DHT22;52862;52.504;13.480;2023-08-24T00:45:56;19.80;99.90
51867;DHT22;52862;52.504;13.480;2023-08-24T00:48:25;19.50;99.90
51867;DHT22;52862;52.504;13.480;2023-08-24T00:50:55;19.30;99.90
51867;DHT22;52862;52.504;13.480;2023-08-24T00:53:24;19.40;99.90
51867;DHT22;52862;52.504;13.480;2023-08-24T00:55:51;19.40;99.90
51867;DHT22;52862;52.504;13.480;2023-08-24T00:58:17;19.60;99.90
51867;DHT22;52862;52.504;13.480;2023-08-24T01:00:46;19.50;99.90
51867;DHT22;52862;52.504;13.480;2023-08-24T01:03:13;19.30;99.90
51867;DHT22;52862;52.504;13.480;2023-08-24T01:05:40;19.50;99.90
51867;DHT22;52862;52.504;13.480;2023-08-24T01:08:08;19.30;99.90
51867;DHT22;52862;52.504;13.480;2023-08-24T01:10:40;19.30;99.90
51867;DHT22;52862;52.504;13.480;2023-08-24T01:13:12;19.30;99.90
51867;DHT22;52862;52.504;13.480;2023-08-24T01:15:50;19.20;99.90
51867;DHT22;52862;52.504;13.480;2023-08-24T01:18:19;19.50;99.90
51867;DHT22;52862;52.504;13.480;2023-08-24T01:20:47;19.20;99.90
51867;DHT22;52862;52.504;13.480;2023-08-24T01:23:28;19.50;99.90
51867;DHT22;52862;52.504;13.480;2023-08-24T01:26:04;19.00;99.90
51867;DHT22;52862;52.504;13.480;2023-08-24T01:28:31;19.40;99.90
51867;DHT22;52862;52.504;13.480;2023-08-24T01:30:58;19.40;99.90
51867;DHT22;52862;52.504;13.480;2023-08-24T01:33:25;19.50;99.90
51867;DHT22;52862;52.504;13.480;2023-08-24T01:35:52;19.40;99.90
51867;DHT22;52862;52.504;13.480;2023-08-24T01:38:19;19.40;99.90
51867;DHT22;52862;52.504;13.480;2023-08-24T01:40:55;19.40;99.90
51867;DHT22;52862;52.504;13.480;2023-08-24T01:43:27;19.00;99.90
51867;DHT22;52862;52.504;13.480;2023-08-24T01:46:11;19.30;99.90
51867;DHT22;52862;52.504;13.480;2023-08-24T01:48:39;19.30;99.90
51867;DHT22;52862;52.504;13.480;2023-08-24T01:51:06;19.30;99.90
51867;DHT22;52862;52.504;13.480;2023-08-24T01:53:34;19.30;99.90
51867;DHT22;52862;52.504;13.480;2023-08-24T01:56:01;19.30;99.90
51867;DHT22;52862;52.504;13.480;2023-08-24T01:58:34;19.40;99.90
51867;DHT22;52862;52.504;13.480;2023-08-24T02:01:01;19.40;99.90
51867;DHT22;52862;52.504;13.480;2023-08-24T02:03:28;19.10;99.90
51867;DHT22;52862;52.504;13.480;2023-08-24T02:05:54;19.40;99.90
51867;DHT22;52862;52.504;13.480;2023-08-24T02:08:21;19.40;99.90
51867;DHT22;52862;52.504;13.480;2023-08-24T02:10:47;19.30;99.90
51867;DHT22;52862;52.504;13.480;2023-08-24T02:13:14;19.30;99.90
51867;DHT22;52862;52.504;13.480;2023-08-24T02:15:41;19.40;99.90
51867;DHT22;52862;52.504;13.480;2023-08-24T02:18:08;19.20;99.90
51867;DHT22;52862;52.504;13.480;2023-08-24T02:20:36;19.30;99.90
51867;DHT22;52862;52.504;13.480;2023-08-24T02:23:03;19.40;99.90
51867;DHT22;52862;52.504;13.480;2023-08-24T02:25:29;19.40;99.90
51867;DHT22;52862;52.504;13.480;2023-08-24T02:27:56;19.30;99.90
51867;DHT22;52862;52.504;13.480;2023-08-24T02:30:23;19.60;99.90
51867;DHT22;52862;52.504;13.480;2023-08-24T02:32:50;19.40;99.90
51867;DHT22;52862;52.504;13.480;2023-08-24T02:35:17;19.40;99.90
51867;DHT22;52862;52.504;13.480;2023-08-24T02:37:44;19.70;99.90
51867;DHT22;52862;52.504;13.480;2023-08-24T02:40:11;19.40;99.90
51867;DHT22;52862;52.504;13.480;2023-08-24T02:42:38;19.50;99.90
51867;DHT22;52862;52.504;13.480;2023-08-24T02:45:05;19.50;99.90
51867;DHT22;52862;52.504;13.480;2023-08-24T02:47:32;19.60;99.90
51867;DHT22;52862;52.504;13.480;2023-08-24T02:50:00;19.50;99.90
51867;DHT22;52862;52.504;13.480;2023-08-24T02:52:27;19.40;99.90
51867;DHT22;52862;52.504;13.480;2023-08-24T02:54:53;19.70;99.90
51867;DHT22;52862;52.504;13.480;2023-08-24T02:57:20;19.70;99.90
51867;DHT22;52862;52.504;13.480;2023-08-24T02:59:47;19.40;99.90
51867;DHT22;52862;52.504;13.480;2023-08-24T03:02:13;19.60;99.90
51867;DHT22;52862;52.504;13.480;2023-08-24T03:04:40;19.50;99.90
51867;DHT22;52862;52.504;13.480;2023-08-24T03:07:07;19.70;99.90
51867;DHT22;52862;52.504;13.480;2023-08-24T03:09:36;19.80;99.90
51867;DHT22;52862;52.504;13.480;2023-08-24T03:12:03;19.80;99.90
51867;DHT22;52862;52.504;13.480;2023-08-24T03:14:30;19.70;99.90
51867;DHT22;52862;52.504;13.480;2023-08-24T03:16:57;19.70;99.90
51867;DHT22;52862;52.504;13.480;2023-08-24T03:19:23;19.50;99.90
51867;DHT22;52862;52.504;13.480;2023-08-24T03:21:50;19.70;99.90
51867;DHT22;52862;52.504;13.480;2023-08-24T03:24:18;19.60;99.90
51867;DHT22;52862;52.504;13.480;2023-08-24T03:26:45;20.40;99.90
51867;DHT22;52862;52.504;13.480;2023-08-24T03:29:11;19.60;99.90
51867;DHT22;52862;52.504;13.480;2023-08-24T03:31:38;19.70;99.90
51867;DHT22;52862;52.504;13.480;2023-08-24T03:34:05;21.30;99.90
51867;DHT22;52862;52.504;13.480;2023-08-24T03:36:31;19.60;99.90
51867;DHT22;52862;52.504;13.480;2023-08-24T03:38:58;19.70;99.90
51867;DHT22;52862;52.504;13.480;2023-08-24T03:41:25;19.60;99.90
51867;DHT22;52862;52.504;13.480;2023-08-24T03:43:52;19.80;99.90
51867;DHT22;52862;52.504;13.480;2023-08-24T03:46:19;20.00;99.90
51867;DHT22;52862;52.504;13.480;2023-08-24T03:48:46;19.80;99.90
51867;DHT22;52862;52.504;13.480;2023-08-24T03:51:12;20.00;99.90
51867;DHT22;52862;52.504;13.480;2023-08-24T03:53:39;19.80;99.90
51867;DHT22;52862;52.504;13.480;2023-08-24T03:56:06;19.80;99.90
51867;DHT22;52862;52.504;13.480;2023-08-24T03:58:33;19.80;99.90
51867;DHT22;52862;52.504;13.480;2023-08-24T04:01:03;19.80;99.90
51867;DHT22;52862;52.504;13.480;2023-08-24T04:03:30;19.70;99.90
51867;DHT22;52862;52.504;13.480;2023-08-24T04:05:57;19.80;99.90
51867;DHT22;52862;52.504;13.480;2023-08-24T04:08:24;19.80;99.90
51867;DHT22;52862;52.504;13.480;2023-08-24T04:10:50;19.70;99.90
51867;DHT22;52862;52.504;13.480;2023-08-24T04:13:17;20.10;99.90
51867;DHT22;52862;52.504;13.480;2023-08-24T04:15:44;19.80;99.90
51867;DHT22;52862;52.504;13.480;2023-08-24T04:18:11;19.80;99.90
51867;DHT22;52862;52.504;13.480;2023-08-24T04:20:38;19.80;99.90
51867;DHT22;52862;52.504;13.480;2023-08-24T04:23:04;19.80;99.90
51867;DHT22;52862;52.504;13.480;2023-08-24T04:25:33;19.90;99.90
51867;DHT22;52862;52.504;13.480;2023-08-24T04:28:00;20.10;99.90
51867;DHT22;52862;52.504;13.480;2023-08-24T04:30:27;19.70;99.90
51867;DHT22;52862;52.504;13.480;2023-08-24T04:32:54;20.00;99.90
51867;DHT22;52862;52.504;13.480;2023-08-24T04:35:21;19.90;99.90
51867;DHT22;52862;52.504;13.480;2023-08-24T04:37:47;20.00;99.90
51867;DHT22;52862;52.504;13.480;2023-08-24T04:40:15;20.00;99.90
51867;DHT22;52862;52.504;13.480;2023-08-24T04:42:41;20.00;99.90
51867;DHT22;52862;52.504;13.480;2023-08-24T04:45:09;20.00;99.90
51867;DHT22;52862;52.504;13.480;2023-08-24T04:47:36;20.00;99.90
51867;DHT22;52862;52.504;13.480;2023-08-24T04:50:03;20.00;99.90
51867;DHT22;52862;52.504;13.480;2023-08-24T04:52:31;20.00;99.90
51867;DHT22;52862;52.504;13.480;2023-08-24T04:54:57;20.00;99.90
51867;DHT22;52862;52.504;13.480;2023-08-24T04:57:24;19.90;99.90
51867;DHT22;52862;52.504;13.480;2023-08-24T04:59:51;20.10;99.90
51867;DHT22;52862;52.504;13.480;2023-08-24T05:02:18;20.00;99.90
51867;DHT22;52862;52.504;13.480;2023-08-24T05:04:44;20.00;99.90
51867;DHT22;52862;52.504;13.480;2023-08-24T05:07:12;20.00;99.90
51867;DHT22;52862;52.504;13.480;2023-08-24T05:09:38;20.00;99.90
51867;DHT22;52862;52.504;13.480;2023-08-24T05:12:05;19.90;99.90
51867;DHT22;52862;52.504;13.480;2023-08-24T05:14:32;20.00;99.90
51867;DHT22;52862;52.504;13.480;2023-08-24T05:17:00;20.20;99.90
51867;DHT22;52862;52.504;13.480;2023-08-24T05:19:27;20.60;99.90
51867;DHT22;52862;52.504;13.480;2023-08-24T05:21:55;20.60;99.90
51867;DHT22;52862;52.504;13.480;2023-08-24T05:24:23;19.70;99.90
51867;DHT22;52862;52.504;13.480;2023-08-24T05:26:49;20.50;99.90
51867;DHT22;52862;52.504;13.480;2023-08-24T05:29:16;20.60;99.90
51867;DHT22;52862;52.504;13.480;2023-08-24T05:31:43;20.60;99.90
51867;DHT22;52862;52.504;13.480;2023-08-24T05:34:09;20.70;99.90
51867;DHT22;52862;52.504;13.480;2023-08-24T05:36:36;20.80;99.90
51867;DHT22;52862;52.504;13.480;2023-08-24T05:39:03;20.90;99.90
51867;DHT22;52862;52.504;13.480;2023-08-24T05:41:33;20.90;99.90
51867;DHT22;52862;52.504;13.480;2023-08-24T05:44:00;21.10;99.90
51867;DHT22;52862;52.504;13.480;2023-08-24T05:46:26;21.00;99.90
51867;DHT22;52862;52.504;13.480;2023-08-24T05:48:53;20.90;99.90
51867;DHT22;52862;52.504;13.480;2023-08-24T05:51:22;20.90;99.90
51867;DHT22;52862;52.504;13.480;2023-08-24T05:53:48;20.60;99.90
51867;DHT22;52862;52.504;13.480;2023-08-24T05:56:15;21.00;99.90
51867;DHT22;52862;52.504;13.480;2023-08-24T05:58:43;21.10;99.90
51867;DHT22;52862;52.504;13.480;2023-08-24T06:01:09;21.30;99.90
51867;DHT22;52862;52.504;13.480;2023-08-24T06:03:36;21.50;99.90
51867;DHT22;52862;52.504;13.480;2023-08-24T06:06:03;21.50;99.90
51867;DHT22;52862;52.504;13.480;2023-08-24T06:08:31;21.50;99.90
51867;DHT22;52862;52.504;13.480;2023-08-24T06:10:58;22.00;99.90
51867;DHT22;52862;52.504;13.480;2023-08-24T06:13:24;21.70;99.90
51867;DHT22;52862;52.504;13.480;2023-08-24T06:15:52;21.90;99.90
51867;DHT22;52862;52.504;13.480;2023-08-24T06:18:19;21.90;99.90
51867;DHT22;52862;52.504;13.480;2023-08-24T06:20:46;21.90;99.90
51867;DHT22;52862;52.504;13.480;2023-08-24T06:23:15;21.50;99.90
51867;DHT22;52862;52.504;13.480;2023-08-24T06:25:42;21.60;99.90
51867;DHT22;52862;52.504;13.480;2023-08-24T06:28:10;21.60;99.90
51867;DHT22;52862;52.504;13.480;2023-08-24T06:30:39;21.60;99.90
51867;DHT22;52862;52.504;13.480;2023-08-24T06:33:07;22.40;99.90
51867;DHT22;52862;52.504;13.480;2023-08-24T06:35:34;22.00;99.90
51867;DHT22;52862;52.504;13.480;2023-08-24T06:38:01;21.80;99.90
51867;DHT22;52862;52.504;13.480;2023-08-24T06:40:29;21.60;99.90
51867;DHT22;52862;52.504;13.480;2023-08-24T06:42:56;22.30;99.90
51867;DHT22;52862;52.504;13.480;2023-08-24T06:45:23;22.80;99.90
51867;DHT22;52862;52.504;13.480;2023-08-24T06:47:49;22.90;99.90
51867;DHT22;52862;52.504;13.480;2023-08-24T06:50:18;23.50;99.90
51867;DHT22;52862;52.504;13.480;2023-08-24T06:52:45;23.70;99.90
51867;DHT22;52862;52.504;13.480;2023-08-24T06:55:12;23.50;99.90
51867;DHT22;52862;52.504;13.480;2023-08-24T06:57:39;23.80;99.90
51867;DHT22;52862;52.504;13.480;2023-08-24T07:00:08;23.40;99.90
51867;DHT22;52862;52.504;13.480;2023-08-24T07:02:36;23.40;99.90
51867;DHT22;52862;52.504;13.480;2023-08-24T07:05:03;23.30;99.90
51867;DHT22;52862;52.504;13.480;2023-08-24T07:07:32;23.30;99.90
51867;DHT22;52862;52.504;13.480;2023-08-24T07:09:59;23.40;99.90
51867;DHT22;52862;52.504;13.480;2023-08-24T07:12:25;22.60;99.90
51867;DHT22;52862;52.504;13.480;2023-08-24T07:14:52;23.70;99.90
51867;DHT22;52862;52.504;13.480;2023-08-24T07:17:19;23.10;99.90
51867;DHT22;52862;52.504;13.480;2023-08-24T07:19:46;23.60;99.90
51867;DHT22;52862;52.504;13.480;2023-08-24T07:22:14;23.80;99.90
51867;DHT22;52862;52.504;13.480;2023-08-24T07:24:41;23.70;99.90
51867;DHT22;52862;52.504;13.480;2023-08-24T07:27:12;23.80;99.90
51867;DHT22;52862;52.504;13.480;2023-08-24T07:29:39;23.80;99.90
51867;DHT22;52862;52.504;13.480;2023-08-24T07:32:05;23.90;99.90
51867;DHT22;52862;52.504;13.480;2023-08-24T07:34:33;24.80;99.90
51867;DHT22;52862;52.504;13.480;2023-08-24T07:37:00;24.20;99.90
51867;DHT22;52862;52.504;13.480;2023-08-24T07:39:26;24.20;99.90
51867;DHT22;52862;52.504;13.480;2023-08-24T07:41:54;24.30;99.90
51867;DHT22;52862;52.504;13.480;2023-08-24T07:44:21;24.30;99.90
51867;DHT22;52862;52.504;13.480;2023-08-24T07:46:47;24.50;99.90
51867;DHT22;52862;52.504;13.480;2023-08-24T07:49:15;24.80;99.90
51867;DHT22;52862;52.504;13.480;2023-08-24T07:51:42;24.80;99.90
51867;DHT22;52862;52.504;13.480;2023-08-24T07:54:09;24.10;99.90
51867;DHT22;52862;52.504;13.480;2023-08-24T07:56:36;24.40;99.90
51867;DHT22;52862;52.504;13.480;2023-08-24T07:59:03;24.70;99.90
51867;DHT22;52862;52.504;13.480;2023-08-24T08:01:30;24.80;99.90
51867;DHT22;52862;52.504;13.480;2023-08-24T08:03:57;24.90;99.90
51867;DHT22;52862;52.504;13.480;2023-08-24T08:06:24;25.30;99.90
51867;DHT22;52862;52.504;13.480;2023-08-24T08:08:51;25.40;99.90
51867;DHT22;52862;52.504;13.480;2023-08-24T08:11:18;25.00;99.90
51867;DHT22;52862;52.504;13.480;2023-08-24T08:13:45;25.40;99.90
51867;DHT22;52862;52.504;13.480;2023-08-24T08:16:12;25.30;99.90
51867;DHT22;52862;52.504;13.480;2023-08-24T08:18:39;25.50;99.90
51867;DHT22;52862;52.504;13.480;2023-08-24T08:21:09;25.50;99.90
51867;DHT22;52862;52.504;13.480;2023-08-24T08:23:37;24.80;99.90
51867;DHT22;52862;52.504;13.480;2023-08-24T08:26:04;25.50;99.90
51867;DHT22;52862;52.504;13.480;2023-08-24T08:28:31;25.10;99.90
51867;DHT22;52862;52.504;13.480;2023-08-24T08:30:59;25.00;99.90
51867;DHT22;52862;52.504;13.480;2023-08-24T08:33:27;25.50;99.90
51867;DHT22;52862;52.504;13.480;2023-08-24T08:35:54;25.10;99.90
51867;DHT22;52862;52.504;13.480;2023-08-24T08:38:20;25.20;99.90
51867;DHT22;52862;52.504;13.480;2023-08-24T08:40:53;25.30;99.90
51867;DHT22;52862;52.504;13.480;2023-08-24T08:43:21;24.80;99.90
51867;DHT22;52862;52.504;13.480;2023-08-24T08:45:49;25.00;99.90
51867;DHT22;52862;52.504;13.480;2023-08-24T08:48:16;24.90;99.90
51867;DHT22;52862;52.504;13.480;2023-08-24T08:50:43;24.90;99.90
51867;DHT22;52862;52.504;13.480;2023-08-24T08:53:10;25.00;99.90
51867;DHT22;52862;52.504;13.480;2023-08-24T08:55:37;24.90;99.90
51867;DHT22;52862;52.504;13.480;2023-08-24T08:58:05;24.80;99.90
51867;DHT22;52862;52.504;13.480;2023-08-24T09:00:32;24.90;99.90
51867;DHT22;52862;52.504;13.480;2023-08-24T09:02:59;25.10;99.90
51867;DHT22;52862;52.504;13.480;2023-08-24T09:05:27;25.20;99.90
51867;DHT22;52862;52.504;13.480;2023-08-24T09:07:55;25.30;99.90
51867;DHT22;52862;52.504;13.480;2023-08-24T09:10:22;25.30;99.90
51867;DHT22;52862;52.504;13.480;2023-08-24T09:12:49;25.20;99.90
51867;DHT22;52862;52.504;13.480;2023-08-24T09:15:24;25.00;99.90
51867;DHT22;52862;52.504;13.480;2023-08-24T09:17:51;24.80;99.90
51867;DHT22;52862;52.504;13.480;2023-08-24T09:20:18;24.90;99.90
51867;DHT22;52862;52.504;13.480;2023-08-24T09:22:45;25.30;99.90
51867;DHT22;52862;52.504;13.480;2023-08-24T09:25:13;25.50;99.90
51867;DHT22;52862;52.504;13.480;2023-08-24T09:27:39;25.50;99.90
51867;DHT22;52862;52.504;13.480;2023-08-24T09:30:08;25.50;99.90
51867;DHT22;52862;52.504;13.480;2023-08-24T09:32:35;25.10;99.90
51867;DHT22;52862;52.504;13.480;2023-08-24T09:35:03;24.90;99.90
51867;DHT22;52862;52.504;13.480;2023-08-24T09:37:32;24.80;99.90
51867;DHT22;52862;52.504;13.480;2023-08-24T09:40:02;25.10;99.90
51867;DHT22;52862;52.504;13.480;2023-08-24T09:42:38;25.50;99.90
51867;DHT22;52862;52.504;13.480;2023-08-24T09:45:06;25.50;99.90
51867;DHT22;52862;52.504;13.480;2023-08-24T09:47:36;25.70;99.90
51867;DHT22;52862;52.504;13.480;2023-08-24T09:50:04;25.90;99.90
51867;DHT22;52862;52.504;13.480;2023-08-24T09:52:33;25.70;99.90
51867;DHT22;52862;52.504;13.480;2023-08-24T09:55:03;25.70;99.90
51867;DHT22;52862;52.504;13.480;2023-08-24T09:57:33;26.10;99.90
51867;DHT22;52862;52.504;13.480;2023-08-24T10:00:06;26.10;99.90
51867;DHT22;52862;52.504;13.480;2023-08-24T10:02:38;25.90;99.90
51867;DHT22;52862;52.504;13.480;2023-08-24T10:05:09;25.90;99.90
51867;DHT22;52862;52.504;13.480;2023-08-24T10:07:56;25.80;99.90
51867;DHT22;52862;52.504;13.480;2023-08-24T10:10:25;25.90;99.90
51867;DHT22;52862;52.504;13.480;2023-08-24T10:12:59;26.00;99.90
51867;DHT22;52862;52.504;13.480;2023-08-24T10:15:28;25.90;99.90
51867;DHT22;52862;52.504;13.480;2023-08-24T10:17:55;26.10;99.90
51867;DHT22;52862;52.504;13.480;2023-08-24T10:20:22;26.20;99.90
51867;DHT22;52862;52.504;13.480;2023-08-24T10:22:50;26.30;99.90
51867;DHT22;52862;52.504;13.480;2023-08-24T10:25:18;26.10;99.90
51867;DHT22;52862;52.504;13.480;2023-08-24T10:27:45;26.10;99.90
51867;DHT22;52862;52.504;13.480;2023-08-24T10:30:15;25.50;99.90
51867;DHT22;52862;52.504;13.480;2023-08-24T10:32:43;26.70;99.90
51867;DHT22;52862;52.504;13.480;2023-08-24T10:35:12;26.80;99.90
51867;DHT22;52862;52.504;13.480;2023-08-24T10:37:44;26.80;99.90
51867;DHT22;52862;52.504;13.480;2023-08-24T10:40:13;26.80;99.90
51867;DHT22;52862;52.504;13.480;2023-08-24T10:42:46;26.70;99.90
51867;DHT22;52862;52.504;13.480;2023-08-24T10:45:15;26.70;99.90
51867;DHT22;52862;52.504;13.480;2023-08-24T10:47:45;26.70;99.90
51867;DHT22;52862;52.504;13.480;2023-08-24T10:50:13;27.20;99.90
51867;DHT22;52862;52.504;13.480;2023-08-24T10:52:43;26.90;99.90
51867;DHT22;52862;52.504;13.480;2023-08-24T10:55:23;27.10;99.90
51867;DHT22;52862;52.504;13.480;2023-08-24T10:57:56;27.00;99.90
51867;DHT22;52862;52.504;13.480;2023-08-24T11:00:26;27.10;99.90
51867;DHT22;52862;52.504;13.480;2023-08-24T11:02:55;27.10;99.90
51867;DHT22;52862;52.504;13.480;2023-08-24T11:05:28;26.60;99.90
51867;DHT22;52862;52.504;13.480;2023-08-24T11:07:58;27.00;99.90
51867;DHT22;52862;52.504;13.480;2023-08-24T11:10:31;27.10;99.90
51867;DHT22;52862;52.504;13.480;2023-08-24T11:13:06;27.10;99.90
51867;DHT22;52862;52.504;13.480;2023-08-24T11:15:33;27.10;99.90
51867;DHT22;52862;52.504;13.480;2023-08-24T11:18:15;27.40;99.90
51867;DHT22;52862;52.504;13.480;2023-08-24T11:20:45;27.20;99.90
51867;DHT22;52862;52.504;13.480;2023-08-24T11:23:14;27.30;99.90
51867;DHT22;52862;52.504;13.480;2023-08-24T11:25:42;27.40;99.90
51867;DHT22;52862;52.504;13.480;2023-08-24T11:28:08;27.50;99.90
51867;DHT22;52862;52.504;13.480;2023-08-24T11:30:35;27.50;99.90
51867;DHT22;52862;52.504;13.480;2023-08-24T11:33:03;27.40;99.90
51867;DHT22;52862;52.504;13.480;2023-08-24T11:35:35;27.20;99.90
51867;DHT22;52862;52.504;13.480;2023-08-24T11:38:03;27.50;99.90
51867;DHT22;52862;52.504;13.480;2023-08-24T11:40:29;27.40;99.90
51867;DHT22;52862;52.504;13.480;2023-08-24T11:42:56;27.50;99.90
51867;DHT22;52862;52.504;13.480;2023-08-24T11:45:24;27.60;99.90
51867;DHT22;52862;52.504;13.480;2023-08-24T11:47:57;27.90;99.90
51867;DHT22;52862;52.504;13.480;2023-08-24T11:50:24;27.80;99.90
51867;DHT22;52862;52.504;13.480;2023-08-24T11:52:53;28.00;99.90
51867;DHT22;52862;52.504;13.480;2023-08-24T11:55:21;28.30;99.90
51867;DHT22;52862;52.504;13.480;2023-08-24T11:57:48;27.90;99.90
51867;DHT22;52862;52.504;13.480;2023-08-24T12:00:16;28.00;99.90
51867;DHT22;52862;52.504;13.480;2023-08-24T12:02:44;28.10;99.90
51867;DHT22;52862;52.504;13.480;2023-08-24T12:05:20;28.40;99.90
51867;DHT22;52862;52.504;13.480;2023-08-24T12:07:48;28.80;99.90
51867;DHT22;52862;52.504;13.480;2023-08-24T12:10:16;29.00;99.90
51867;DHT22;52862;52.504;13.480;2023-08-24T12:12:43;29.20;99.90
51867;DHT22;52862;52.504;13.480;2023-08-24T12:15:15;29.20;99.10
51867;DHT22;52862;52.504;13.480;2023-08-24T12:17:43;28.80;99.70
51867;DHT22;52862;52.504;13.480;2023-08-24T12:20:18;28.60;99.90
51867;DHT22;52862;52.504;13.480;2023-08-24T12:22:50;28.50;99.90
51867;DHT22;52862;52.504;13.480;2023-08-24T12:25:21;28.70;99.90
51867;DHT22;52862;52.504;13.480;2023-08-24T12:27:48;28.50;99.90
51867;DHT22;52862;52.504;13.480;2023-08-24T12:30:15;28.50;99.90
51867;DHT22;52862;52.504;13.480;2023-08-24T12:32:43;28.60;99.90
51867;DHT22;52862;52.504;13.480;2023-08-24T12:35:10;28.80;99.90
51867;DHT22;52862;52.504;13.480;2023-08-24T12:37:36;29.20;99.90
51867;DHT22;52862;52.504;13.480;2023-08-24T12:40:04;29.40;99.30
51867;DHT22;52862;52.504;13.480;2023-08-24T12:42:32;29.30;99.10
51867;DHT22;52862;52.504;13.480;2023-08-24T12:45:04;29.30;99.20
51867;DHT22;52862;52.504;13.480;2023-08-24T12:47:30;29.20;99.20
51867;DHT22;52862;52.504;13.480;2023-08-24T12:49:57;29.50;98.80
51867;DHT22;52862;52.504;13.480;2023-08-24T12:52:24;29.80;99.90
51867;DHT22;52862;52.504;13.480;2023-08-24T12:54:50;30.10;98.50
51867;DHT22;52862;52.504;13.480;2023-08-24T12:57:17;30.40;98.00
51867;DHT22;52862;52.504;13.480;2023-08-24T12:59:44;30.40;98.70
51867;DHT22;52862;52.504;13.480;2023-08-24T13:02:12;28.70;97.90
51867;DHT22;52862;52.504;13.480;2023-08-24T13:04:56;30.30;97.80
51867;DHT22;52862;52.504;13.480;2023-08-24T13:07:27;30.30;98.40
51867;DHT22;52862;52.504;13.480;2023-08-24T13:09:53;30.60;97.50
51867;DHT22;52862;52.504;13.480;2023-08-24T13:12:20;30.90;97.70
51867;DHT22;52862;52.504;13.480;2023-08-24T13:14:48;31.10;96.60
51867;DHT22;52862;52.504;13.480;2023-08-24T13:17:15;31.20;96.90
51867;DHT22;52862;52.504;13.480;2023-08-24T13:19:41;30.70;96.30
51867;DHT22;52862;52.504;13.480;2023-08-24T13:22:08;30.50;96.70
51867;DHT22;52862;52.504;13.480;2023-08-24T13:24:35;30.70;97.20
51867;DHT22;52862;52.504;13.480;2023-08-24T13:27:02;30.60;97.50
51867;DHT22;52862;52.504;13.480;2023-08-24T13:29:29;31.00;97.60
51867;DHT22;52862;52.504;13.480;2023-08-24T13:31:56;31.60;97.00
51867;DHT22;52862;52.504;13.480;2023-08-24T13:34:23;32.10;96.30
51867;DHT22;52862;52.504;13.480;2023-08-24T13:36:50;32.40;96.60
51867;DHT22;52862;52.504;13.480;2023-08-24T13:39:16;32.60;95.40
51867;DHT22;52862;52.504;13.480;2023-08-24T13:41:43;32.70;96.10
51867;DHT22;52862;52.504;13.480;2023-08-24T13:44:09;32.60;95.00
51867;DHT22;52862;52.504;13.480;2023-08-24T13:46:36;32.70;95.40
51867;DHT22;52862;52.504;13.480;2023-08-24T13:49:04;33.10;95.20
51867;DHT22;52862;52.504;13.480;2023-08-24T13:51:30;33.10;95.00
51867;DHT22;52862;52.504;13.480;2023-08-24T13:53:57;33.20;95.60
51867;DHT22;52862;52.504;13.480;2023-08-24T13:56:24;33.10;94.80
51867;DHT22;52862;52.504;13.480;2023-08-24T13:58:50;33.10;93.30
51867;DHT22;52862;52.504;13.480;2023-08-24T14:01:17;33.10;93.50
51867;DHT22;52862;52.504;13.480;2023-08-24T14:03:44;35.40;91.20
51867;DHT22;52862;52.504;13.480;2023-08-24T14:06:11;38.40;86.80
51867;DHT22;52862;52.504;13.480;2023-08-24T14:08:38;40.40;79.70
51867;DHT22;52862;52.504;13.480;2023-08-24T14:11:04;41.20;75.40
51867;DHT22;52862;52.504;13.480;2023-08-24T14:13:31;41.50;71.60
51867;DHT22;52862;52.504;13.480;2023-08-24T14:15:58;40.90;69.50
51867;DHT22;52862;52.504;13.480;2023-08-24T14:18:25;40.70;68.20
51867;DHT22;52862;52.504;13.480;2023-08-24T14:20:51;38.00;79.40
51867;DHT22;52862;52.504;13.480;2023-08-24T14:23:19;38.00;73.30
51867;DHT22;52862;52.504;13.480;2023-08-24T14:25:46;36.40;74.30
51867;DHT22;52862;52.504;13.480;2023-08-24T14:28:13;36.10;76.20
51867;DHT22;52862;52.504;13.480;2023-08-24T14:30:41;37.20;74.50
51867;DHT22;52862;52.504;13.480;2023-08-24T14:33:07;38.60;72.00
51867;DHT22;52862;52.504;13.480;2023-08-24T14:35:34;40.80;68.10
51867;DHT22;52862;52.504;13.480;2023-08-24T14:38:01;42.10;64.20
51867;DHT22;52862;52.504;13.480;2023-08-24T14:40:28;42.70;62.80
51867;DHT22;52862;52.504;13.480;2023-08-24T14:42:55;42.50;62.20
51867;DHT22;52862;52.504;13.480;2023-08-24T14:45:22;41.20;62.50
51867;DHT22;52862;52.504;13.480;2023-08-24T14:47:49;39.80;65.00
51867;DHT22;52862;52.504;13.480;2023-08-24T14:50:15;38.90;66.10
51867;DHT22;52862;52.504;13.480;2023-08-24T14:52:42;38.30;67.90
51867;DHT22;52862;52.504;13.480;2023-08-24T14:55:09;38.10;67.60
51867;DHT22;52862;52.504;13.480;2023-08-24T14:57:36;37.50;69.10
51867;DHT22;52862;52.504;13.480;2023-08-24T15:00:04;37.70;69.10
51867;DHT22;52862;52.504;13.480;2023-08-24T15:02:32;38.30;69.00
51867;DHT22;52862;52.504;13.480;2023-08-24T15:04:59;38.60;67.60
51867;DHT22;52862;52.504;13.480;2023-08-24T15:07:26;39.80;65.20
51867;DHT22;52862;52.504;13.480;2023-08-24T15:09:53;41.30;64.10
51867;DHT22;52862;52.504;13.480;2023-08-24T15:12:21;41.40;61.50
51867;DHT22;52862;52.504;13.480;2023-08-24T15:14:57;40.70;63.40
51867;DHT22;52862;52.504;13.480;2023-08-24T15:17:24;38.50;62.90
51867;DHT22;52862;52.504;13.480;2023-08-24T15:19:51;36.50;67.10